sensor_id;sensor_type;location;lat;lon;timestamp;P1;durP1;ratioP1;P2;durP2;ratioP2
30303;SDS011;17112;48.636;10.152;2022-09-28T00:00:39;36.97;;;14.27;;
30303;SDS011;17112;48.636;10.152;2022-09-28T00:03:06;27.67;;;9.93;;
30303;SDS011;17112;48.636;10.152;2022-09-28T00:05:33;11.93;;;5.60;;
30303;SDS011;17112;48.636;10.152;2022-09-28T00:07:59;5.88;;;2.85;;
30303;SDS011;17112;48.636;10.152;2022-09-28T00:10:25;2.45;;;1.60;;
30303;SDS011;17112;48.636;10.152;2022-09-28T00:12:51;3.35;;;1.55;;
30303;SDS011;17112;48.636;10.152;2022-09-28T00:15:19;2.10;;;1.45;;
30303;SDS011;17112;48.636;10.152;2022-09-28T00:17:45;2.28;;;1.20;;
30303;SDS011;17112;48.636;10.152;2022-09-28T00:20:11;1.88;;;1.08;;
30303;SDS011;17112;48.636;10.152;2022-09-28T00:22:37;3.10;;;1.00;;
30303;SDS011;17112;48.636;10.152;2022-09-28T00:25:04;0.98;;;0.82;;
30303;SDS011;17112;48.636;10.152;2022-09-28T00:27:31;2.95;;;1.20;;
30303;SDS011;17112;48.636;10.152;2022-09-28T00:29:56;1.40;;;1.05;;
30303;SDS011;17112;48.636;10.152;2022-09-28T00:32:22;2.05;;;1.08;;
30303;SDS011;17112;48.636;10.152;2022-09-28T00:34:49;1.45;;;1.15;;
30303;SDS011;17112;48.636;10.152;2022-09-28T00:37:15;1.65;;;1.08;;
30303;SDS011;17112;48.636;10.152;2022-09-28T00:39:46;1.20;;;1.10;;
30303;SDS011;17112;48.636;10.152;2022-09-28T00:42:17;2.28;;;1.70;;
30303;SDS011;17112;48.636;10.152;2022-09-28T00:44:46;3.42;;;1.50;;
30303;SDS011;17112;48.636;10.152;2022-09-28T00:47:32;1.80;;;1.20;;
30303;SDS011;17112;48.636;10.152;2022-09-28T00:50:21;2.38;;;1.20;;
30303;SDS011;17112;48.636;10.152;2022-09-28T00:55:30;3.33;;;1.70;;
30303;SDS011;17112;48.636;10.152;2022-09-28T00:57:58;1.63;;;1.40;;
30303;SDS011;17112;48.636;10.152;2022-09-28T01:00:26;2.28;;;1.50;;
30303;SDS011;17112;48.636;10.152;2022-09-28T01:02:52;5.05;;;1.80;;
30303;SDS011;17112;48.636;10.152;2022-09-28T01:05:18;1.98;;;1.23;;
30303;SDS011;17112;48.636;10.152;2022-09-28T01:07:45;3.20;;;1.60;;
30303;SDS011;17112;48.636;10.152;2022-09-28T01:10:11;1.48;;;1.20;;
30303;SDS011;17112;48.636;10.152;2022-09-28T01:12:38;1.92;;;1.08;;
30303;SDS011;17112;48.636;10.152;2022-09-28T01:15:03;1.58;;;1.10;;
30303;SDS011;17112;48.636;10.152;2022-09-28T01:25:58;3.10;;;1.40;;
30303;SDS011;17112;48.636;10.152;2022-09-28T01:29:34;1.58;;;1.00;;
30303;SDS011;17112;48.636;10.152;2022-09-28T01:32:31;2.08;;;1.33;;
30303;SDS011;17112;48.636;10.152;2022-09-28T01:35:16;3.15;;;1.35;;
30303;SDS011;17112;48.636;10.152;2022-09-28T01:38:13;1.38;;;0.90;;
30303;SDS011;17112;48.636;10.152;2022-09-28T01:40:43;2.75;;;1.35;;
30303;SDS011;17112;48.636;10.152;2022-09-28T01:43:15;4.30;;;1.13;;
30303;SDS011;17112;48.636;10.152;2022-09-28T01:45:47;1.80;;;1.00;;
30303;SDS011;17112;48.636;10.152;2022-09-28T01:48:22;1.98;;;1.00;;
30303;SDS011;17112;48.636;10.152;2022-09-28T01:50:57;3.53;;;1.40;;
30303;SDS011;17112;48.636;10.152;2022-09-28T01:53:28;3.60;;;1.10;;
30303;SDS011;17112;48.636;10.152;2022-09-28T01:56:03;3.05;;;1.20;;
30303;SDS011;17112;48.636;10.152;2022-09-28T01:58:38;2.13;;;0.93;;
30303;SDS011;17112;48.636;10.152;2022-09-28T02:01:20;4.03;;;1.10;;
30303;SDS011;17112;48.636;10.152;2022-09-28T02:06:33;6.57;;;1.17;;
30303;SDS011;17112;48.636;10.152;2022-09-28T02:09:12;3.83;;;1.27;;
30303;SDS011;17112;48.636;10.152;2022-09-28T02:11:47;2.50;;;0.90;;
30303;SDS011;17112;48.636;10.152;2022-09-28T02:14:17;3.05;;;1.10;;
30303;SDS011;17112;48.636;10.152;2022-09-28T02:16:45;2.15;;;0.90;;
30303;SDS011;17112;48.636;10.152;2022-09-28T02:19:16;4.15;;;1.00;;
30303;SDS011;17112;48.636;10.152;2022-09-28T02:22:02;1.75;;;1.02;;
30303;SDS011;17112;48.636;10.152;2022-09-28T02:24:50;2.30;;;1.02;;
30303;SDS011;17112;48.636;10.152;2022-09-28T02:29:47;3.30;;;1.15;;
30303;SDS011;17112;48.636;10.152;2022-09-28T02:32:13;3.40;;;1.30;;
30303;SDS011;17112;48.636;10.152;2022-09-28T02:34:40;2.22;;;1.10;;
30303;SDS011;17112;48.636;10.152;2022-09-28T02:37:06;4.43;;;1.08;;
30303;SDS011;17112;48.636;10.152;2022-09-28T02:39:31;5.00;;;1.65;;
30303;SDS011;17112;48.636;10.152;2022-09-28T02:58:27;3.10;;;1.20;;
30303;SDS011;17112;48.636;10.152;2022-09-28T03:03:52;3.28;;;1.20;;
30303;SDS011;17112;48.636;10.152;2022-09-28T03:06:31;3.33;;;1.10;;
30303;SDS011;17112;48.636;10.152;2022-09-28T03:11:42;2.45;;;1.15;;
30303;SDS011;17112;48.636;10.152;2022-09-28T03:14:11;4.20;;;1.48;;
30303;SDS011;17112;48.636;10.152;2022-09-28T03:16:41;1.63;;;1.08;;
30303;SDS011;17112;48.636;10.152;2022-09-28T03:19:09;5.03;;;1.30;;
30303;SDS011;17112;48.636;10.152;2022-09-28T03:21:40;3.08;;;1.42;;
30303;SDS011;17112;48.636;10.152;2022-09-28T03:24:06;2.47;;;1.23;;
30303;SDS011;17112;48.636;10.152;2022-09-28T03:26:35;4.30;;;1.33;;
30303;SDS011;17112;48.636;10.152;2022-09-28T03:29:03;1.70;;;1.15;;
30303;SDS011;17112;48.636;10.152;2022-09-28T03:31:29;4.30;;;1.30;;
30303;SDS011;17112;48.636;10.152;2022-09-28T03:33:55;2.05;;;0.98;;
30303;SDS011;17112;48.636;10.152;2022-09-28T03:36:20;3.05;;;1.30;;
30303;SDS011;17112;48.636;10.152;2022-09-28T03:38:46;3.00;;;1.25;;
30303;SDS011;17112;48.636;10.152;2022-09-28T03:41:12;3.72;;;1.38;;
30303;SDS011;17112;48.636;10.152;2022-09-28T03:43:37;2.78;;;1.30;;
30303;SDS011;17112;48.636;10.152;2022-09-28T03:46:03;5.03;;;1.42;;
30303;SDS011;17112;48.636;10.152;2022-09-28T03:48:34;5.90;;;1.67;;
30303;SDS011;17112;48.636;10.152;2022-09-28T03:51:01;1.52;;;1.00;;
30303;SDS011;17112;48.636;10.152;2022-09-28T03:53:28;1.67;;;1.13;;
30303;SDS011;17112;48.636;10.152;2022-09-28T03:55:55;2.90;;;1.15;;
30303;SDS011;17112;48.636;10.152;2022-09-28T03:58:26;3.17;;;1.00;;
30303;SDS011;17112;48.636;10.152;2022-09-28T04:00:52;3.78;;;1.10;;
30303;SDS011;17112;48.636;10.152;2022-09-28T04:03:18;2.75;;;1.17;;
30303;SDS011;17112;48.636;10.152;2022-09-28T04:05:47;3.55;;;1.50;;
30303;SDS011;17112;48.636;10.152;2022-09-28T04:08:14;1.92;;;1.20;;
30303;SDS011;17112;48.636;10.152;2022-09-28T04:10:39;2.40;;;1.10;;
30303;SDS011;17112;48.636;10.152;2022-09-28T04:13:05;2.20;;;1.20;;
30303;SDS011;17112;48.636;10.152;2022-09-28T04:15:30;3.63;;;1.17;;
30303;SDS011;17112;48.636;10.152;2022-09-28T04:17:56;2.00;;;1.17;;
30303;SDS011;17112;48.636;10.152;2022-09-28T04:20:22;3.40;;;1.10;;
30303;SDS011;17112;48.636;10.152;2022-09-28T04:22:47;3.78;;;1.10;;
30303;SDS011;17112;48.636;10.152;2022-09-28T04:25:13;3.35;;;1.23;;
30303;SDS011;17112;48.636;10.152;2022-09-28T04:27:40;5.07;;;1.40;;
30303;SDS011;17112;48.636;10.152;2022-09-28T04:30:24;2.72;;;1.38;;
30303;SDS011;17112;48.636;10.152;2022-09-28T04:32:50;3.78;;;1.30;;
30303;SDS011;17112;48.636;10.152;2022-09-28T04:35:16;1.65;;;1.13;;
30303;SDS011;17112;48.636;10.152;2022-09-28T04:37:41;5.07;;;1.50;;
30303;SDS011;17112;48.636;10.152;2022-09-28T04:40:07;1.20;;;1.10;;
30303;SDS011;17112;48.636;10.152;2022-09-28T04:42:35;2.15;;;1.15;;
30303;SDS011;17112;48.636;10.152;2022-09-28T04:45:00;6.00;;;1.13;;
30303;SDS011;17112;48.636;10.152;2022-09-28T04:47:28;1.27;;;0.90;;
30303;SDS011;17112;48.636;10.152;2022-09-28T04:49:54;4.07;;;1.42;;
30303;SDS011;17112;48.636;10.152;2022-09-28T04:52:20;2.88;;;1.48;;
30303;SDS011;17112;48.636;10.152;2022-09-28T04:54:46;4.30;;;1.48;;
30303;SDS011;17112;48.636;10.152;2022-09-28T04:57:11;1.50;;;0.93;;
30303;SDS011;17112;48.636;10.152;2022-09-28T04:59:37;3.28;;;1.20;;
30303;SDS011;17112;48.636;10.152;2022-09-28T05:02:03;3.55;;;1.20;;
30303;SDS011;17112;48.636;10.152;2022-09-28T05:04:29;3.00;;;1.20;;
30303;SDS011;17112;48.636;10.152;2022-09-28T05:06:55;3.58;;;2.05;;
30303;SDS011;17112;48.636;10.152;2022-09-28T05:09:21;4.60;;;1.30;;
30303;SDS011;17112;48.636;10.152;2022-09-28T05:11:50;1.95;;;1.30;;
30303;SDS011;17112;48.636;10.152;2022-09-28T05:14:17;4.45;;;1.60;;
30303;SDS011;17112;48.636;10.152;2022-09-28T05:16:45;2.88;;;1.20;;
30303;SDS011;17112;48.636;10.152;2022-09-28T05:19:12;2.63;;;0.95;;
30303;SDS011;17112;48.636;10.152;2022-09-28T05:21:37;2.90;;;1.20;;
30303;SDS011;17112;48.636;10.152;2022-09-28T05:24:03;2.00;;;1.00;;
30303;SDS011;17112;48.636;10.152;2022-09-28T05:26:31;3.53;;;1.48;;
30303;SDS011;17112;48.636;10.152;2022-09-28T05:28:57;1.67;;;1.25;;
30303;SDS011;17112;48.636;10.152;2022-09-28T05:31:23;3.85;;;1.00;;
30303;SDS011;17112;48.636;10.152;2022-09-28T05:33:51;1.58;;;0.82;;
30303;SDS011;17112;48.636;10.152;2022-09-28T05:36:17;1.85;;;0.85;;
30303;SDS011;17112;48.636;10.152;2022-09-28T05:38:43;2.88;;;1.08;;
30303;SDS011;17112;48.636;10.152;2022-09-28T05:41:09;1.23;;;0.80;;
30303;SDS011;17112;48.636;10.152;2022-09-28T05:43:35;1.23;;;0.80;;
30303;SDS011;17112;48.636;10.152;2022-09-28T05:46:02;1.17;;;0.70;;
30303;SDS011;17112;48.636;10.152;2022-09-28T05:48:28;2.63;;;1.00;;
30303;SDS011;17112;48.636;10.152;2022-09-28T05:50:54;1.08;;;0.77;;
30303;SDS011;17112;48.636;10.152;2022-09-28T05:53:22;0.60;;;0.60;;
30303;SDS011;17112;48.636;10.152;2022-09-28T05:55:48;2.47;;;0.70;;
30303;SDS011;17112;48.636;10.152;2022-09-28T05:58:14;0.50;;;0.50;;
30303;SDS011;17112;48.636;10.152;2022-09-28T06:00:40;0.65;;;0.50;;
30303;SDS011;17112;48.636;10.152;2022-09-28T06:03:07;1.70;;;0.70;;
30303;SDS011;17112;48.636;10.152;2022-09-28T06:05:35;0.70;;;0.60;;
30303;SDS011;17112;48.636;10.152;2022-09-28T06:08:03;0.82;;;0.60;;
30303;SDS011;17112;48.636;10.152;2022-09-28T06:10:30;1.55;;;0.50;;
30303;SDS011;17112;48.636;10.152;2022-09-28T06:12:56;3.03;;;1.70;;
30303;SDS011;17112;48.636;10.152;2022-09-28T06:15:23;1.75;;;1.20;;
30303;SDS011;17112;48.636;10.152;2022-09-28T06:20:29;2.60;;;1.77;;
30303;SDS011;17112;48.636;10.152;2022-09-28T06:22:57;4.68;;;3.83;;
30303;SDS011;17112;48.636;10.152;2022-09-28T06:25:23;4.45;;;2.80;;
30303;SDS011;17112;48.636;10.152;2022-09-28T06:28:10;0.98;;;0.80;;
30303;SDS011;17112;48.636;10.152;2022-09-28T06:30:38;3.72;;;2.45;;
30303;SDS011;17112;48.636;10.152;2022-09-28T06:33:04;7.63;;;5.88;;
30303;SDS011;17112;48.636;10.152;2022-09-28T06:35:32;2.45;;;1.30;;
30303;SDS011;17112;48.636;10.152;2022-09-28T06:37:58;1.23;;;0.65;;
30303;SDS011;17112;48.636;10.152;2022-09-28T06:40:25;0.60;;;0.50;;
30303;SDS011;17112;48.636;10.152;2022-09-28T06:42:58;1.55;;;1.27;;
30303;SDS011;17112;48.636;10.152;2022-09-28T06:45:26;1.67;;;0.60;;
30303;SDS011;17112;48.636;10.152;2022-09-28T06:47:53;0.80;;;0.50;;
30303;SDS011;17112;48.636;10.152;2022-09-28T06:50:22;1.50;;;0.73;;
30303;SDS011;17112;48.636;10.152;2022-09-28T06:52:52;1.20;;;0.80;;
30303;SDS011;17112;48.636;10.152;2022-09-28T06:55:19;0.75;;;0.50;;
30303;SDS011;17112;48.636;10.152;2022-09-28T06:57:45;1.77;;;0.85;;
30303;SDS011;17112;48.636;10.152;2022-09-28T07:00:12;0.60;;;0.60;;
30303;SDS011;17112;48.636;10.152;2022-09-28T07:02:38;0.57;;;0.50;;
30303;SDS011;17112;48.636;10.152;2022-09-28T07:05:04;1.58;;;1.48;;
30303;SDS011;17112;48.636;10.152;2022-09-28T07:07:32;0.68;;;0.60;;
30303;SDS011;17112;48.636;10.152;2022-09-28T07:09:57;1.23;;;0.70;;
30303;SDS011;17112;48.636;10.152;2022-09-28T07:12:23;1.38;;;1.10;;
30303;SDS011;17112;48.636;10.152;2022-09-28T07:14:49;10.27;;;5.28;;
30303;SDS011;17112;48.636;10.152;2022-09-28T07:17:20;1.70;;;1.17;;
30303;SDS011;17112;48.636;10.152;2022-09-28T07:19:47;2.15;;;0.70;;
30303;SDS011;17112;48.636;10.152;2022-09-28T07:22:17;1.40;;;1.13;;
30303;SDS011;17112;48.636;10.152;2022-09-28T07:24:43;2.40;;;0.90;;
30303;SDS011;17112;48.636;10.152;2022-09-28T07:27:09;1.83;;;0.60;;
30303;SDS011;17112;48.636;10.152;2022-09-28T07:29:34;9.32;;;5.50;;
30303;SDS011;17112;48.636;10.152;2022-09-28T07:32:00;4.28;;;1.25;;
30303;SDS011;17112;48.636;10.152;2022-09-28T07:34:28;1.38;;;0.80;;
30303;SDS011;17112;48.636;10.152;2022-09-28T07:36:53;2.13;;;1.00;;
30303;SDS011;17112;48.636;10.152;2022-09-28T07:39:22;1.38;;;0.50;;
30303;SDS011;17112;48.636;10.152;2022-09-28T07:41:47;1.15;;;0.60;;
30303;SDS011;17112;48.636;10.152;2022-09-28T07:44:13;2.10;;;0.90;;
30303;SDS011;17112;48.636;10.152;2022-09-28T07:46:39;4.30;;;0.90;;
30303;SDS011;17112;48.636;10.152;2022-09-28T07:49:05;2.53;;;1.00;;
30303;SDS011;17112;48.636;10.152;2022-09-28T07:51:31;3.33;;;1.38;;
30303;SDS011;17112;48.636;10.152;2022-09-28T07:53:58;2.25;;;1.10;;
30303;SDS011;17112;48.636;10.152;2022-09-28T07:56:24;4.13;;;2.40;;
30303;SDS011;17112;48.636;10.152;2022-09-28T07:58:50;1.92;;;0.80;;
30303;SDS011;17112;48.636;10.152;2022-09-28T08:01:16;1.63;;;0.73;;
30303;SDS011;17112;48.636;10.152;2022-09-28T08:03:43;2.50;;;0.70;;
30303;SDS011;17112;48.636;10.152;2022-09-28T08:06:09;0.90;;;0.60;;
30303;SDS011;17112;48.636;10.152;2022-09-28T08:08:39;1.88;;;0.63;;
30303;SDS011;17112;48.636;10.152;2022-09-28T08:11:12;0.93;;;0.60;;
30303;SDS011;17112;48.636;10.152;2022-09-28T08:13:40;1.33;;;0.90;;
30303;SDS011;17112;48.636;10.152;2022-09-28T08:16:06;1.88;;;0.75;;
30303;SDS011;17112;48.636;10.152;2022-09-28T08:18:33;1.27;;;0.60;;
30303;SDS011;17112;48.636;10.152;2022-09-28T08:21:03;0.95;;;0.60;;
30303;SDS011;17112;48.636;10.152;2022-09-28T08:23:48;1.08;;;0.90;;
30303;SDS011;17112;48.636;10.152;2022-09-28T08:26:14;1.75;;;0.70;;
30303;SDS011;17112;48.636;10.152;2022-09-28T08:28:40;2.25;;;0.70;;
30303;SDS011;17112;48.636;10.152;2022-09-28T08:31:07;0.70;;;0.63;;
30303;SDS011;17112;48.636;10.152;2022-09-28T08:33:33;3.30;;;0.80;;
30303;SDS011;17112;48.636;10.152;2022-09-28T08:36:00;2.90;;;0.80;;
30303;SDS011;17112;48.636;10.152;2022-09-28T08:38:29;0.65;;;0.60;;
30303;SDS011;17112;48.636;10.152;2022-09-28T08:46:09;1.45;;;0.80;;
30303;SDS011;17112;48.636;10.152;2022-09-28T08:48:38;2.47;;;0.90;;
30303;SDS011;17112;48.636;10.152;2022-09-28T08:59:00;1.27;;;0.77;;
30303;SDS011;17112;48.636;10.152;2022-09-28T09:01:45;2.38;;;0.90;;
30303;SDS011;17112;48.636;10.152;2022-09-28T09:04:15;2.75;;;1.00;;
30303;SDS011;17112;48.636;10.152;2022-09-28T09:09:29;2.00;;;0.93;;
30303;SDS011;17112;48.636;10.152;2022-09-28T09:12:20;2.38;;;1.38;;
30303;SDS011;17112;48.636;10.152;2022-09-28T09:15:20;1.00;;;0.90;;
30303;SDS011;17112;48.636;10.152;2022-09-28T09:21:01;2.00;;;0.90;;
30303;SDS011;17112;48.636;10.152;2022-09-28T09:31:58;4.22;;;0.93;;
30303;SDS011;17112;48.636;10.152;2022-09-28T09:48:20;1.73;;;0.85;;
30303;SDS011;17112;48.636;10.152;2022-09-28T09:51:02;2.85;;;1.27;;
30303;SDS011;17112;48.636;10.152;2022-09-28T09:56:16;3.85;;;1.33;;
30303;SDS011;17112;48.636;10.152;2022-09-28T09:58:47;2.83;;;1.10;;
30303;SDS011;17112;48.636;10.152;2022-09-28T10:01:34;2.03;;;0.90;;
30303;SDS011;17112;48.636;10.152;2022-09-28T10:04:03;2.72;;;0.95;;
30303;SDS011;17112;48.636;10.152;2022-09-28T10:06:35;4.80;;;1.20;;
30303;SDS011;17112;48.636;10.152;2022-09-28T10:09:24;5.03;;;1.30;;
30303;SDS011;17112;48.636;10.152;2022-09-28T10:11:56;5.40;;;2.00;;
30303;SDS011;17112;48.636;10.152;2022-09-28T10:14:22;4.45;;;1.55;;
30303;SDS011;17112;48.636;10.152;2022-09-28T10:16:52;2.90;;;1.40;;
30303;SDS011;17112;48.636;10.152;2022-09-28T10:19:20;5.05;;;1.50;;
30303;SDS011;17112;48.636;10.152;2022-09-28T10:22:03;2.63;;;1.20;;
30303;SDS011;17112;48.636;10.152;2022-09-28T10:24:40;6.53;;;1.30;;
30303;SDS011;17112;48.636;10.152;2022-09-28T10:27:18;4.63;;;1.40;;
30303;SDS011;17112;48.636;10.152;2022-09-28T10:32:27;7.22;;;2.40;;
30303;SDS011;17112;48.636;10.152;2022-09-28T10:35:12;4.63;;;1.90;;
30303;SDS011;17112;48.636;10.152;2022-09-28T10:40:44;3.47;;;1.58;;
30303;SDS011;17112;48.636;10.152;2022-09-28T10:43:33;7.57;;;1.40;;
30303;SDS011;17112;48.636;10.152;2022-09-28T10:48:44;7.43;;;1.38;;
30303;SDS011;17112;48.636;10.152;2022-09-28T10:51:15;1.80;;;1.10;;
30303;SDS011;17112;48.636;10.152;2022-09-28T10:53:41;5.95;;;1.13;;
30303;SDS011;17112;48.636;10.152;2022-09-28T10:56:28;1.65;;;1.02;;
30303;SDS011;17112;48.636;10.152;2022-09-28T10:58:59;4.00;;;1.20;;
30303;SDS011;17112;48.636;10.152;2022-09-28T11:01:29;4.03;;;1.20;;
30303;SDS011;17112;48.636;10.152;2022-09-28T11:04:01;3.42;;;1.30;;
30303;SDS011;17112;48.636;10.152;2022-09-28T11:06:31;2.65;;;1.10;;
30303;SDS011;17112;48.636;10.152;2022-09-28T11:09:04;5.53;;;1.70;;
30303;SDS011;17112;48.636;10.152;2022-09-28T11:11:50;2.45;;;1.08;;
30303;SDS011;17112;48.636;10.152;2022-09-28T11:14:34;3.50;;;0.90;;
30303;SDS011;17112;48.636;10.152;2022-09-28T11:20:19;2.78;;;1.20;;
30303;SDS011;17112;48.636;10.152;2022-09-28T11:22:47;2.88;;;1.13;;
30303;SDS011;17112;48.636;10.152;2022-09-28T11:28:03;2.22;;;1.10;;
30303;SDS011;17112;48.636;10.152;2022-09-28T11:33:16;3.05;;;1.15;;
30303;SDS011;17112;48.636;10.152;2022-09-28T11:35:55;2.35;;;1.17;;
30303;SDS011;17112;48.636;10.152;2022-09-28T11:47:52;4.57;;;1.33;;
30303;SDS011;17112;48.636;10.152;2022-09-28T12:00:51;2.72;;;1.10;;
30303;SDS011;17112;48.636;10.152;2022-09-28T12:03:39;1.67;;;0.70;;
30303;SDS011;17112;48.636;10.152;2022-09-28T12:06:17;5.43;;;1.10;;
30303;SDS011;17112;48.636;10.152;2022-09-28T12:08:57;2.97;;;1.10;;
30303;SDS011;17112;48.636;10.152;2022-09-28T12:11:34;5.47;;;1.38;;
30303;SDS011;17112;48.636;10.152;2022-09-28T12:14:03;3.50;;;1.50;;
30303;SDS011;17112;48.636;10.152;2022-09-28T12:16:38;2.88;;;1.50;;
30303;SDS011;17112;48.636;10.152;2022-09-28T12:21:46;3.30;;;1.27;;
30303;SDS011;17112;48.636;10.152;2022-09-28T12:26:58;2.50;;;1.10;;
30303;SDS011;17112;48.636;10.152;2022-09-28T12:29:42;4.20;;;1.10;;
30303;SDS011;17112;48.636;10.152;2022-09-28T12:32:34;2.95;;;0.93;;
30303;SDS011;17112;48.636;10.152;2022-09-28T12:35:01;4.25;;;1.10;;
30303;SDS011;17112;48.636;10.152;2022-09-28T12:42:41;1.13;;;0.93;;
30303;SDS011;17112;48.636;10.152;2022-09-28T12:59:36;3.80;;;1.42;;
30303;SDS011;17112;48.636;10.152;2022-09-28T13:07:43;2.97;;;1.88;;
30303;SDS011;17112;48.636;10.152;2022-09-28T13:14:03;2.83;;;1.15;;
30303;SDS011;17112;48.636;10.152;2022-09-28T13:18:27;4.32;;;2.08;;
30303;SDS011;17112;48.636;10.152;2022-09-28T13:21:17;4.10;;;1.65;;
30303;SDS011;17112;48.636;10.152;2022-09-28T13:23:50;3.78;;;1.33;;
30303;SDS011;17112;48.636;10.152;2022-09-28T13:26:29;2.30;;;1.00;;
30303;SDS011;17112;48.636;10.152;2022-09-28T13:29:00;3.97;;;1.98;;
30303;SDS011;17112;48.636;10.152;2022-09-28T13:31:28;3.60;;;1.90;;
30303;SDS011;17112;48.636;10.152;2022-09-28T13:33:58;7.75;;;1.75;;
30303;SDS011;17112;48.636;10.152;2022-09-28T13:38:56;4.13;;;1.38;;
30303;SDS011;17112;48.636;10.152;2022-09-28T13:41:33;3.00;;;1.27;;
30303;SDS011;17112;48.636;10.152;2022-09-28T13:46:47;3.30;;;1.60;;
30303;SDS011;17112;48.636;10.152;2022-09-28T13:49:21;6.90;;;2.60;;
30303;SDS011;17112;48.636;10.152;2022-09-28T14:06:02;5.78;;;2.85;;
30303;SDS011;17112;48.636;10.152;2022-09-28T14:14:04;8.18;;;1.77;;
30303;SDS011;17112;48.636;10.152;2022-09-28T14:16:36;3.90;;;1.52;;
30303;SDS011;17112;48.636;10.152;2022-09-28T14:19:20;4.35;;;1.30;;
30303;SDS011;17112;48.636;10.152;2022-09-28T14:30:18;3.20;;;1.00;;
30303;SDS011;17112;48.636;10.152;2022-09-28T14:32:55;3.13;;;1.15;;
30303;SDS011;17112;48.636;10.152;2022-09-28T14:35:27;7.60;;;1.27;;
30303;SDS011;17112;48.636;10.152;2022-09-28T14:38:04;2.92;;;1.20;;
30303;SDS011;17112;48.636;10.152;2022-09-28T14:41:03;2.53;;;1.05;;
30303;SDS011;17112;48.636;10.152;2022-09-28T14:54:36;5.55;;;1.58;;
30303;SDS011;17112;48.636;10.152;2022-09-28T15:04:55;4.25;;;1.52;;
30303;SDS011;17112;48.636;10.152;2022-09-28T15:07:48;4.38;;;1.40;;
30303;SDS011;17112;48.636;10.152;2022-09-28T15:12:52;3.88;;;1.63;;
30303;SDS011;17112;48.636;10.152;2022-09-28T15:15:24;3.83;;;1.83;;
30303;SDS011;17112;48.636;10.152;2022-09-28T15:17:52;7.80;;;2.88;;
30303;SDS011;17112;48.636;10.152;2022-09-28T15:20:26;7.68;;;2.10;;
30303;SDS011;17112;48.636;10.152;2022-09-28T15:22:59;4.83;;;1.80;;
30303;SDS011;17112;48.636;10.152;2022-09-28T15:25:26;3.03;;;1.63;;
30303;SDS011;17112;48.636;10.152;2022-09-28T15:27:54;3.25;;;1.98;;
30303;SDS011;17112;48.636;10.152;2022-09-28T15:32:59;6.43;;;1.90;;
30303;SDS011;17112;48.636;10.152;2022-09-28T15:35:45;8.57;;;1.90;;
30303;SDS011;17112;48.636;10.152;2022-09-28T15:38:14;6.25;;;2.53;;
30303;SDS011;17112;48.636;10.152;2022-09-28T15:40:43;5.38;;;3.05;;
30303;SDS011;17112;48.636;10.152;2022-09-28T15:43:32;7.90;;;4.10;;
30303;SDS011;17112;48.636;10.152;2022-09-28T15:46:02;9.65;;;3.80;;
30303;SDS011;17112;48.636;10.152;2022-09-28T15:48:56;4.82;;;2.67;;
30303;SDS011;17112;48.636;10.152;2022-09-28T15:51:23;5.95;;;2.90;;
30303;SDS011;17112;48.636;10.152;2022-09-28T15:54:01;4.07;;;2.67;;
30303;SDS011;17112;48.636;10.152;2022-09-28T15:57:26;11.63;;;3.70;;
30303;SDS011;17112;48.636;10.152;2022-09-28T15:59:32;6.10;;;3.00;;
30303;SDS011;17112;48.636;10.152;2022-09-28T16:02:10;4.43;;;2.58;;
30303;SDS011;17112;48.636;10.152;2022-09-28T16:04:48;4.75;;;2.40;;
30303;SDS011;17112;48.636;10.152;2022-09-28T16:07:20;5.60;;;2.47;;
30303;SDS011;17112;48.636;10.152;2022-09-28T16:12:53;6.03;;;2.72;;
30303;SDS011;17112;48.636;10.152;2022-09-28T16:15:26;2.70;;;1.55;;
30303;SDS011;17112;48.636;10.152;2022-09-28T16:17:59;3.95;;;1.67;;
30303;SDS011;17112;48.636;10.152;2022-09-28T16:20:42;5.00;;;1.90;;
30303;SDS011;17112;48.636;10.152;2022-09-28T16:25:38;5.57;;;1.50;;
30303;SDS011;17112;48.636;10.152;2022-09-28T16:28:25;4.38;;;1.52;;
30303;SDS011;17112;48.636;10.152;2022-09-28T16:33:50;2.05;;;1.20;;
30303;SDS011;17112;48.636;10.152;2022-09-28T16:36:18;3.95;;;1.38;;
30303;SDS011;17112;48.636;10.152;2022-09-28T16:38:46;2.88;;;1.42;;
30303;SDS011;17112;48.636;10.152;2022-09-28T16:41:13;3.72;;;1.60;;
30303;SDS011;17112;48.636;10.152;2022-09-28T16:43:43;3.25;;;1.30;;
30303;SDS011;17112;48.636;10.152;2022-09-28T16:46:13;4.85;;;1.30;;
30303;SDS011;17112;48.636;10.152;2022-09-28T16:51:18;3.10;;;1.42;;
30303;SDS011;17112;48.636;10.152;2022-09-28T16:53:45;5.47;;;1.40;;
30303;SDS011;17112;48.636;10.152;2022-09-28T16:56:33;2.85;;;1.40;;
30303;SDS011;17112;48.636;10.152;2022-09-28T16:59:00;3.25;;;1.50;;
30303;SDS011;17112;48.636;10.152;2022-09-28T17:01:28;4.32;;;1.50;;
30303;SDS011;17112;48.636;10.152;2022-09-28T17:03:55;4.95;;;1.88;;
30303;SDS011;17112;48.636;10.152;2022-09-28T17:06:21;7.90;;;3.22;;
30303;SDS011;17112;48.636;10.152;2022-09-28T17:08:51;4.30;;;2.33;;
30303;SDS011;17112;48.636;10.152;2022-09-28T17:11:22;4.82;;;2.70;;
30303;SDS011;17112;48.636;10.152;2022-09-28T17:13:48;4.32;;;2.20;;
30303;SDS011;17112;48.636;10.152;2022-09-28T17:16:21;4.25;;;2.67;;
30303;SDS011;17112;48.636;10.152;2022-09-28T17:18:47;7.45;;;3.72;;
30303;SDS011;17112;48.636;10.152;2022-09-28T17:21:14;8.50;;;4.18;;
30303;SDS011;17112;48.636;10.152;2022-09-28T17:23:42;7.53;;;3.90;;
30303;SDS011;17112;48.636;10.152;2022-09-28T17:26:14;22.48;;;7.40;;
30303;SDS011;17112;48.636;10.152;2022-09-28T17:28:51;8.55;;;4.55;;
30303;SDS011;17112;48.636;10.152;2022-09-28T17:31:17;6.22;;;3.20;;
30303;SDS011;17112;48.636;10.152;2022-09-28T17:33:43;6.90;;;3.47;;
30303;SDS011;17112;48.636;10.152;2022-09-28T17:36:09;5.85;;;3.40;;
30303;SDS011;17112;48.636;10.152;2022-09-28T17:38:39;6.72;;;3.25;;
30303;SDS011;17112;48.636;10.152;2022-09-28T17:41:10;5.93;;;3.13;;
30303;SDS011;17112;48.636;10.152;2022-09-28T17:43:37;6.00;;;2.95;;
30303;SDS011;17112;48.636;10.152;2022-09-28T17:46:06;7.32;;;3.35;;
30303;SDS011;17112;48.636;10.152;2022-09-28T17:48:51;9.30;;;3.40;;
30303;SDS011;17112;48.636;10.152;2022-09-28T17:51:16;5.63;;;3.20;;
30303;SDS011;17112;48.636;10.152;2022-09-28T17:53:42;8.27;;;2.83;;
30303;SDS011;17112;48.636;10.152;2022-09-28T17:56:08;5.18;;;2.60;;
30303;SDS011;17112;48.636;10.152;2022-09-28T17:58:34;5.07;;;2.63;;
30303;SDS011;17112;48.636;10.152;2022-09-28T18:00:59;5.00;;;2.42;;
30303;SDS011;17112;48.636;10.152;2022-09-28T18:03:25;4.90;;;2.97;;
30303;SDS011;17112;48.636;10.152;2022-09-28T18:05:56;5.78;;;3.47;;
30303;SDS011;17112;48.636;10.152;2022-09-28T18:08:32;3.88;;;2.67;;
30303;SDS011;17112;48.636;10.152;2022-09-28T18:10:58;6.90;;;3.05;;
30303;SDS011;17112;48.636;10.152;2022-09-28T18:13:25;6.82;;;3.40;;
30303;SDS011;17112;48.636;10.152;2022-09-28T18:15:52;7.85;;;3.50;;
30303;SDS011;17112;48.636;10.152;2022-09-28T18:18:19;6.25;;;3.50;;
30303;SDS011;17112;48.636;10.152;2022-09-28T18:20:45;3.90;;;2.70;;
30303;SDS011;17112;48.636;10.152;2022-09-28T18:23:11;7.70;;;3.10;;
30303;SDS011;17112;48.636;10.152;2022-09-28T18:25:38;4.72;;;2.10;;
30303;SDS011;17112;48.636;10.152;2022-09-28T18:28:08;6.43;;;3.20;;
30303;SDS011;17112;48.636;10.152;2022-09-28T18:30:36;11.50;;;4.38;;
30303;SDS011;17112;48.636;10.152;2022-09-28T18:33:03;6.97;;;3.10;;
30303;SDS011;17112;48.636;10.152;2022-09-28T18:35:29;5.05;;;2.78;;
30303;SDS011;17112;48.636;10.152;2022-09-28T18:37:55;3.88;;;2.33;;
30303;SDS011;17112;48.636;10.152;2022-09-28T18:40:20;4.75;;;2.40;;